AEE377 LGMK-LGAV
Flight info
| Callsign | AEE377 |
|---|---|
| Flight time | 0h 21m |
| Altitude | 14000 |
| Route | VARIX |
| Aircraft | A320/M-SDE3FGHIRWY/LB1 |
Departure
| Time | 2026-04-24 11:56 |
|---|---|
| Airport | Mykonos Island National Airport (LGMK) |
Arrival
| Time | 2026-04-24 12:17 |
|---|---|
| Airport | Athens Eleftherios Venizelos International Airport (LGAV) |
| Time | Latitude | Longitude | Altitude | Speed | Heading |
|---|---|---|---|---|---|
| 2026-04-24 11:13 | 37.43464 | 25.34643 | 413 ft | 0 kts | 250° |
| 2026-04-24 11:49 | 37.43469 | 25.34659 | 413 ft | 2 kts | 249° |
| 2026-04-24 11:49 | 37.43474 | 25.34678 | 413 ft | 2 kts | 261° |
| 2026-04-24 11:49 | 37.43473 | 25.34697 | 413 ft | 2 kts | 290° |
| 2026-04-24 11:50 | 37.43465 | 25.34713 | 414 ft | 2 kts | 317° |
| 2026-04-24 11:50 | 37.43456 | 25.34721 | 414 ft | 0 kts | 336° |
| 2026-04-24 11:50 | 37.43449 | 25.34724 | 414 ft | 0 kts | 340° |
| 2026-04-24 11:52 | 37.43484 | 25.34708 | 414 ft | 10 kts | 340° |
| 2026-04-24 11:52 | 37.43562 | 25.34672 | 411 ft | 13 kts | 340° |
| 2026-04-24 11:52 | 37.43649 | 25.34689 | 410 ft | 11 kts | 48° |
| 2026-04-24 11:53 | 37.43634 | 25.34758 | 413 ft | 8 kts | 147° |
| 2026-04-24 11:53 | 37.43576 | 25.34789 | 415 ft | 13 kts | 160° |
| 2026-04-24 11:53 | 37.43463 | 25.34836 | 418 ft | 18 kts | 161° |
| 2026-04-24 11:53 | 37.43346 | 25.34889 | 420 ft | 17 kts | 160° |
| 2026-04-24 11:54 | 37.43226 | 25.34943 | 418 ft | 18 kts | 160° |
| 2026-04-24 11:54 | 37.43103 | 25.34999 | 416 ft | 20 kts | 160° |
| 2026-04-24 11:54 | 37.42965 | 25.35059 | 410 ft | 22 kts | 160° |
| 2026-04-24 11:54 | 37.42822 | 25.35124 | 402 ft | 16 kts | 163° |
| 2026-04-24 11:55 | 37.42737 | 25.35130 | 395 ft | 9 kts | 137° |
| 2026-04-24 11:55 | 37.42758 | 25.35160 | 396 ft | 6 kts | 341° |
| 2026-04-24 11:55 | 37.42895 | 25.35093 | 406 ft | 48 kts | 339° |
| 2026-04-24 11:55 | 37.43425 | 25.34854 | 419 ft | 115 kts | 341° |
| 2026-04-24 11:56 | 37.44314 | 25.34451 | 682 ft | 145 kts | 341° |
| 2026-04-24 11:56 | 37.45249 | 25.34032 | 1324 ft | 148 kts | 341° |
| 2026-04-24 11:56 | 37.46211 | 25.33603 | 1939 ft | 151 kts | 340° |
| 2026-04-24 11:56 | 37.47181 | 25.32980 | 2330 ft | 168 kts | 329° |
| 2026-04-24 11:57 | 37.48120 | 25.31957 | 2694 ft | 192 kts | 304° |
| 2026-04-24 11:57 | 37.48549 | 25.30297 | 3133 ft | 216 kts | 279° |
| 2026-04-24 11:57 | 37.48676 | 25.28352 | 3684 ft | 234 kts | 277° |
| 2026-04-24 11:57 | 37.48803 | 25.26243 | 4239 ft | 252 kts | 277° |
| 2026-04-24 11:58 | 37.48956 | 25.23983 | 4797 ft | 271 kts | 277° |
| 2026-04-24 11:58 | 37.49130 | 25.21537 | 5409 ft | 287 kts | 277° |
| 2026-04-24 11:58 | 37.49309 | 25.19050 | 6295 ft | 293 kts | 277° |
| 2026-04-24 11:58 | 37.49496 | 25.16493 | 7287 ft | 295 kts | 276° |
| 2026-04-24 11:59 | 37.49684 | 25.13957 | 8205 ft | 298 kts | 276° |
| 2026-04-24 11:59 | 37.49878 | 25.11346 | 9108 ft | 303 kts | 276° |
| 2026-04-24 11:59 | 37.50074 | 25.08712 | 9965 ft | 307 kts | 275° |
| 2026-04-24 11:59 | 37.50272 | 25.06042 | 10770 ft | 311 kts | 275° |
| 2026-04-24 12:00 | 37.50475 | 25.03290 | 11537 ft | 316 kts | 275° |
| 2026-04-24 12:00 | 37.50677 | 25.00537 | 12252 ft | 322 kts | 275° |
| 2026-04-24 12:00 | 37.50881 | 24.97761 | 12951 ft | 326 kts | 275° |
| 2026-04-24 12:00 | 37.51088 | 24.94932 | 13658 ft | 330 kts | 275° |
| 2026-04-24 12:01 | 37.51298 | 24.92070 | 14366 ft | 333 kts | 275° |
| 2026-04-24 12:01 | 37.51509 | 24.89190 | 15067 ft | 336 kts | 275° |
| 2026-04-24 12:01 | 37.51725 | 24.86230 | 15672 ft | 339 kts | 275° |
| 2026-04-24 12:01 | 37.51938 | 24.83294 | 15975 ft | 340 kts | 275° |
| 2026-04-24 12:02 | 37.52152 | 24.80335 | 16009 ft | 340 kts | 275° |
| 2026-04-24 12:02 | 37.52364 | 24.77405 | 16011 ft | 340 kts | 275° |
| 2026-04-24 12:02 | 37.52578 | 24.74441 | 16012 ft | 340 kts | 275° |
| 2026-04-24 12:02 | 37.52790 | 24.71492 | 16013 ft | 340 kts | 275° |
| 2026-04-24 12:03 | 37.53001 | 24.68536 | 16013 ft | 340 kts | 275° |
| 2026-04-24 12:03 | 37.53214 | 24.65556 | 16012 ft | 340 kts | 275° |
| 2026-04-24 12:03 | 37.53425 | 24.62585 | 15797 ft | 339 kts | 275° |
| 2026-04-24 12:03 | 37.53632 | 24.59672 | 15550 ft | 337 kts | 275° |
| 2026-04-24 12:04 | 37.53841 | 24.56711 | 15298 ft | 336 kts | 275° |
| 2026-04-24 12:04 | 37.54027 | 24.54069 | 15071 ft | 335 kts | 275° |
| 2026-04-24 12:04 | 37.54233 | 24.51137 | 14817 ft | 334 kts | 275° |
| 2026-04-24 12:04 | 37.54439 | 24.48197 | 14554 ft | 333 kts | 275° |
| 2026-04-24 12:05 | 37.54640 | 24.45322 | 14213 ft | 332 kts | 275° |
| 2026-04-24 12:05 | 37.54842 | 24.42414 | 13803 ft | 330 kts | 275° |
| 2026-04-24 12:05 | 37.55062 | 24.39540 | 13362 ft | 330 kts | 279° |
| 2026-04-24 12:05 | 37.55577 | 24.36715 | 12897 ft | 330 kts | 285° |
| 2026-04-24 12:06 | 37.56225 | 24.33956 | 12439 ft | 330 kts | 286° |
| 2026-04-24 12:06 | 37.56884 | 24.31195 | 11978 ft | 330 kts | 286° |
| 2026-04-24 12:06 | 37.57527 | 24.28432 | 11522 ft | 329 kts | 285° |
| 2026-04-24 12:06 | 37.58160 | 24.25642 | 11074 ft | 328 kts | 285° |
| 2026-04-24 12:07 | 37.58769 | 24.22915 | 10640 ft | 327 kts | 285° |
| 2026-04-24 12:07 | 37.59381 | 24.20141 | 10283 ft | 322 kts | 285° |
| 2026-04-24 12:07 | 37.59966 | 24.17472 | 10114 ft | 311 kts | 285° |
| 2026-04-24 12:07 | 37.60524 | 24.14915 | 9997 ft | 300 kts | 285° |
| 2026-04-24 12:08 | 37.61070 | 24.12409 | 9735 ft | 294 kts | 285° |
| 2026-04-24 12:08 | 37.61605 | 24.09946 | 9431 ft | 289 kts | 285° |
| 2026-04-24 12:08 | 37.62135 | 24.07502 | 8997 ft | 287 kts | 285° |
| 2026-04-24 12:08 | 37.62659 | 24.05083 | 8552 ft | 285 kts | 285° |
| 2026-04-24 12:09 | 37.63177 | 24.02687 | 8153 ft | 282 kts | 285° |
| 2026-04-24 12:09 | 37.63688 | 24.00322 | 7774 ft | 278 kts | 285° |
| 2026-04-24 12:09 | 37.64191 | 23.97992 | 7469 ft | 274 kts | 285° |
| 2026-04-24 12:09 | 37.64688 | 23.95687 | 7161 ft | 273 kts | 285° |
| 2026-04-24 12:10 | 37.65191 | 23.93352 | 6832 ft | 272 kts | 285° |
| 2026-04-24 12:10 | 37.65682 | 23.91069 | 6503 ft | 273 kts | 285° |
| 2026-04-24 12:10 | 37.66177 | 23.88763 | 6177 ft | 271 kts | 285° |
| 2026-04-24 12:11 | 37.67162 | 23.84178 | 5524 ft | 268 kts | 287° |
| 2026-04-24 12:11 | 37.67951 | 23.82097 | 5184 ft | 267 kts | 310° |
| 2026-04-24 12:11 | 37.69416 | 23.80710 | 4898 ft | 264 kts | 338° |
| 2026-04-24 12:11 | 37.71201 | 23.80333 | 4654 ft | 260 kts | 359° |
| 2026-04-24 12:12 | 37.72986 | 23.80444 | 4406 ft | 257 kts | 4° |
| 2026-04-24 12:12 | 37.74726 | 23.80641 | 4161 ft | 246 kts | 5° |
| 2026-04-24 12:12 | 37.76345 | 23.80840 | 3981 ft | 230 kts | 5° |
| 2026-04-24 12:12 | 37.77856 | 23.81152 | 3792 ft | 218 kts | 17° |
| 2026-04-24 12:13 | 37.79216 | 23.81949 | 3511 ft | 212 kts | 30° |
| 2026-04-24 12:13 | 37.80407 | 23.82956 | 3233 ft | 206 kts | 34° |
| 2026-04-24 12:13 | 37.81540 | 23.84020 | 2960 ft | 200 kts | 36° |
| 2026-04-24 12:13 | 37.82634 | 23.85074 | 2693 ft | 198 kts | 36° |
| 2026-04-24 12:14 | 37.83718 | 23.86115 | 2529 ft | 192 kts | 36° |
| 2026-04-24 12:14 | 37.84783 | 23.87131 | 2259 ft | 189 kts | 36° |
| 2026-04-24 12:14 | 37.85813 | 23.88111 | 1971 ft | 180 kts | 35° |
| 2026-04-24 12:14 | 37.86786 | 23.89036 | 1719 ft | 172 kts | 35° |
| 2026-04-24 12:15 | 37.87723 | 23.89926 | 1508 ft | 160 kts | 35° |
| 2026-04-24 12:15 | 37.88577 | 23.90739 | 1283 ft | 148 kts | 35° |
| 2026-04-24 12:15 | 37.89355 | 23.91478 | 1076 ft | 135 kts | 35° |
| 2026-04-24 12:15 | 37.90080 | 23.92168 | 905 ft | 128 kts | 35° |
| 2026-04-24 12:16 | 37.90794 | 23.92845 | 751 ft | 127 kts | 35° |
| 2026-04-24 12:16 | 37.91497 | 23.93513 | 584 ft | 127 kts | 35° |
| 2026-04-24 12:16 | 37.92199 | 23.94177 | 425 ft | 125 kts | 37° |
| 2026-04-24 12:16 | 37.92876 | 23.94821 | 288 ft | 114 kts | 37° |
| 2026-04-24 12:17 | 37.93377 | 23.95299 | 287 ft | 65 kts | 37° |
| 2026-04-24 12:17 | 37.93633 | 23.95542 | 287 ft | 31 kts | 37° |
| 2026-04-24 12:17 | 37.93744 | 23.95592 | 287 ft | 15 kts | 322° |
| 2026-04-24 12:17 | 37.93813 | 23.95485 | 287 ft | 16 kts | 307° |
| 2026-04-24 12:18 | 37.93882 | 23.95369 | 287 ft | 16 kts | 308° |
| 2026-04-24 12:18 | 37.93952 | 23.95252 | 287 ft | 17 kts | 307° |
| 2026-04-24 12:18 | 37.94014 | 23.95143 | 287 ft | 11 kts | 310° |
| 2026-04-24 12:18 | 37.94077 | 23.95151 | 287 ft | 10 kts | 36° |
| 2026-04-24 12:19 | 37.94093 | 23.95165 | 287 ft | 0 kts | 37° |